Home > Products > Valid Products > TAF

000
FTUS45 KGGW 250212 AAA
TAFSDY
TAF AMD
KSDY 250212Z 2502/2524 21006KT P6SM SCT070
     FM250800 02006KT P6SM VCSH SCT030 BKN060
     FM251000 02008KT 4SM -SHRA SCT010 OVC020
     FM251800 01010KT P6SM VCSH BKN030
      AMD LTD TO CLD VIS AND WIND=



000
FTUS45 KGGW 250206 AAA
TAFGDV
TAF AMD
KGDV 250206Z 2502/2524 VRB06KT P6SM SCT060 BKN120
     FM250700 02008KT P6SM VCSH SCT030 BKN060
     FM251000 01010KT 5SM -SHRA OVC015
     FM251600 36011KT P6SM VCSH SCT015 BKN030
      AMD LTD TO CLD VIS AND WIND=



000
FTUS45 KGGW 242321
TAFGDV
TAF
KGDV 242321Z 2500/2524 VRB06KT P6SM SCT120
     FM251200 01010KT P6SM -SHRA OVC025
     FM251800 36011KT P6SM -SHRA BKN011
      AMD LTD TO CLD VIS AND WIND=



000
FTUS45 KGGW 242321
TAFSDY
TAF
KSDY 242321Z 2500/2524 21006KT P6SM SCT070
     FM251200 01005KT P6SM -SHRA OVC050
     FM251800 01010KT P6SM -SHRA OVC011
      AMD LTD TO CLD VIS AND WIND=



000
FTUS45 KGGW 242321
TAFGGW
TAF
KGGW 242321Z 2500/2524 29006KT P6SM BKN060
     FM250600 03005KT P6SM SCT140
     FM252100 35008KT P6SM VCSH BKN045=



000
FTUS45 KGGW 242321
TAFOLF
TAF
KOLF 242321Z 2500/2524 26009KT P6SM SCT060
     FM251200 03004KT P6SM -SHRA OVC060
     FM251800 35010KT P6SM -SHRA BKN017=



000
FTUS45 KGGW 241720
TAFSDY
TAF
KSDY 241720Z 2418/2518 27009KT P6SM BKN090
     FM250600 02004KT P6SM BKN070
     FM251200 02004KT P6SM -SHRA OVC020
      AMD LTD TO CLD VIS AND WIND=



000
FTUS45 KGGW 241720
TAFGDV
TAF
KGDV 241720Z 2418/2518 24009KT P6SM VCSH BKN100
     FM250600 03007KT 6SM -SHRA OVC035
      AMD LTD TO CLD VIS AND WIND=



000
FTUS45 KGGW 241720
TAFOLF
TAF
KOLF 241720Z 2418/2518 25010KT P6SM BKN050
     FM250600 01004KT P6SM SCT070=



000
FTUS45 KGGW 241720
TAFGGW
TAF
KGGW 241720Z 2418/2518 26009KT P6SM VCSH BKN040
     FM250600 02005KT P6SM SCT090=



000
FTUS45 KGGW 241120
TAFSDY
TAF
KSDY 241120Z 2412/2512 23004KT P6SM BKN090
     FM241500 24008KT P6SM BKN080
     FM250000 26007KT P6SM SCT150
     FM250600 02004KT P6SM BKN060
      AMD LTD TO CLD VIS AND WIND=



000
FTUS45 KGGW 241120
TAFOLF
TAF
KOLF 241120Z 2412/2512 24005KT P6SM BKN050
     FM241500 25009KT P6SM BKN045
     FM250000 26008KT P6SM SCT140
     FM250600 02004KT P6SM BKN060=



000
FTUS45 KGGW 241120
TAFGGW
TAF
KGGW 241120Z 2412/2512 24006KT P6SM VCSH BKN040
     FM241600 26009KT P6SM VCSH BKN040
     FM241900 26009KT P6SM BKN040
     FM250000 26007KT P6SM SCT070
     FM250300 32005KT P6SM SCT150
     FM250600 02005KT P6SM SCT100=



000
FTUS45 KGGW 241120
TAFGDV
TAF
KGDV 241120Z 2412/2512 VRB05KT P6SM BKN080
     FM241700 24008KT P6SM BKN080
     FM250000 25005KT P6SM SCT150
     FM250300 01006KT P6SM SCT150
     FM250900 03007KT P6SM -SHRA OVC045
      AMD LTD TO CLD VIS AND WIND=



000
FTUS45 KGGW 231128
TAFGDV
TAF
KGDV 231128Z 2312/2412 22005KT P6SM FEW200
     FM231600 24016KT P6SM FEW250
     FM240300 27009KT P6SM SCT150
     FM240600 28005KT P6SM BKN080
      AMD NOT SKED=



000
FTUS45 KGGW 231128
TAFSDY
TAF
KSDY 231128Z 2312/2412 22006KT P6SM FEW250
     FM231400 24011KT P6SM FEW250
     FM231800 23018G27KT P6SM FEW150
     FM240300 26007KT P6SM BKN150
      AMD LTD TO CLD VIS AND WIND=



000
FTUS45 KGGW 231128
TAFGGW
TAF
KGGW 231128Z 2312/2412 24007KT P6SM BKN080
     FM231600 25017G25KT P6SM BKN060
     FM231800 26020G28KT P6SM VCSH BKN045
     FM232100 26018KT P6SM BKN060 PROB30 2321/2324 6SM -SHRA OVC040=



000
FTUS45 KGGW 231128
TAFOLF
TAF
KOLF 231128Z 2312/2412 23005KT P6SM FEW200
     FM231400 24010KT P6SM SCT100
     FM231700 24018KT P6SM BKN070
     FM240300 25008KT P6SM BKN080=



000
FTUS45 KGGW 230528
TAFSDY
TAF
KSDY 230528Z 2306/2406 VRB05KT P6SM SCT200
     FM231500 24011KT P6SM FEW250
     FM232100 24018G27KT P6SM SCT150
     FM240300 26007KT P6SM BKN150
      AMD LTD TO CLD VIS AND WIND=



000
FTUS45 KGGW 230528
TAFGGW
TAF
KGGW 230528Z 2306/2406 VRB06KT P6SM SCT150
     FM231500 25018G28KT P6SM BKN070 PROB30 2323/2401 6SM -SHRA
      OVC025
     FM240300 26009KT P6SM BKN070=



000
FTUS45 KGGW 230528
TAFGDV
TAF
KGDV 230528Z 2306/2406 VRB06KT P6SM SCT150
     FM231500 24011KT P6SM SCT250
     FM231800 24016G24KT P6SM SCT200
     FM240300 29009KT P6SM BKN150
      AMD LTD TO CLD VIS AND WIND=



000
FTUS45 KGGW 230528
TAFOLF
TAF
KOLF 230528Z 2306/2406 VRB04KT P6SM SCT150
     FM231500 25014KT P6SM SCT150
     FM232100 25019G28KT P6SM SCT070
     FM240300 25008KT P6SM BKN080=



000
FTUS45 KGGW 222333
TAFGDV
TAF
KGDV 222333Z 2300/2324 25011KT P6SM VCSH SCT100
     FM230300 25007KT P6SM SCT100
     FM231500 24014KT P6SM SCT120
      AMD NOT SKED=



000
FTUS45 KGGW 222333
TAFGGW
TAF
KGGW 222333Z 2300/2324 22018G25KT P6SM VCSH SCT070
     FM230300 25008KT P6SM SCT080
     FM231500 25015KT P6SM SCT050 BKN120=



000
FTUS45 KGGW 222333
TAFSDY
TAF
KSDY 222333Z 2300/2324 25010KT P6SM VCSH SCT090
     FM230300 24006KT P6SM SCT100
     FM231500 24011KT P6SM SCT120
      AMD LTD TO CLD VIS AND WIND=



000
FTUS45 KGGW 222333
TAFOLF
TAF
KOLF 222333Z 2300/2324 23015KT P6SM SCT060
     FM230300 26007KT P6SM SCT060
     FM231500 26017G25KT P6SM SCT070=



000
FTUS45 KGGW 220535
TAFGDV
TAF
KGDV 220535Z 2206/2306 21009KT 6SM -RA SCT040 OVC080
     FM221300 VRB06KT P6SM BKN150
     FM221600 24014KT P6SM SCT200
     FM230200 20008KT P6SM FEW250
      AMD LTD TO CLD VIS AND WIND=



000
FTUS45 KGGW 220535
TAFSDY
TAF
KSDY 220535Z 2206/2306 17013KT 6SM -RA SCT020 OVC040
     FM220900 21007KT P6SM VCSH SCT050 BKN090
     FM221100 24007KT 6SM -RA SCT040 BKN080
     FM221400 22008KT P6SM VCSH SCT060 BKN110
     FM221700 23012KT P6SM SCT200
      AMD LTD TO CLD VIS AND WIND=



    US Dept of Commerce
    National Oceanic and Atmospheric Administration
    National Weather Service
    1325 East West Highway
    Silver Spring, MD 20910
    Page Author: NWS Internet Services Team
Disclaimer
Information Quality
Credits
Glossary
Privacy Policy
Freedom of Information Act (FOIA)
About Us
Career Opportunities